Time;durP1;ratioP1;P1;durP2;ratioP2;P2;SDS_P1;SDS_P2;PMS_P1;PMS_P2;Temp;Humidity;BMP_temperature;BMP_pressure;BME280_temperature;BME280_humidity;BME280_pressure;Samples;Min_cycle;Max_cycle;Signal;HPM_P1;HPM_P2
2020/12/17 00:00:42;;;;;;;28.93;18.67;;;;;;;;;;4956791;28;20203;-76
2020/12/17 00:03:08;;;;;;;30.80;18.67;;;;;;;;;;4955717;28;20186;-76
2020/12/17 00:05:35;;;;;;;28.60;18.33;;;;;;;;;;4956792;28;20648;-76
2020/12/17 00:08:01;;;;;;;25.83;17.10;;;;;;;;;;4956769;28;20183;-76
2020/12/17 00:10:27;;;;;;;27.37;17.73;;;;;;;;;;4955485;28;20215;-76
2020/12/17 00:12:53;;;;;;;26.07;17.57;;;;;;;;;;4938528;28;20306;-77
2020/12/17 00:15:20;;;;;;;25.73;18.10;;;;;;;;;;4957120;28;20186;-76
2020/12/17 00:17:47;;;;;;;26.27;18.13;;;;;;;;;;4956633;28;20180;-77
2020/12/17 00:20:14;;;;;;;25.90;17.73;;;;;;;;;;4948963;28;20221;-76
2020/12/17 00:22:40;;;;;;;22.37;16.27;;;;;;;;;;4956940;28;20240;-76
2020/12/17 00:25:11;;;;;;;25.23;16.43;;;;;;;;;;4955618;28;20186;-75
2020/12/17 00:27:37;;;;;;;22.97;15.73;;;;;;;;;;4956486;28;20663;-76
2020/12/17 00:30:05;;;;;;;20.87;15.37;;;;;;;;;;4956537;28;20229;-76
2020/12/17 00:32:31;;;;;;;19.17;14.70;;;;;;;;;;4956395;28;20179;-75
2020/12/17 00:34:57;;;;;;;16.90;14.50;;;;;;;;;;4956542;28;20192;-76
2020/12/17 00:37:27;;;;;;;20.57;14.97;;;;;;;;;;4956262;28;20189;-76
2020/12/17 00:39:54;;;;;;;19.63;14.60;;;;;;;;;;4956473;28;20220;-76
2020/12/17 00:42:20;;;;;;;18.73;14.67;;;;;;;;;;4956439;28;20252;-75
2020/12/17 00:44:46;;;;;;;20.00;14.40;;;;;;;;;;4956194;28;20193;-75
2020/12/17 00:47:11;;;;;;;18.40;14.20;;;;;;;;;;4956018;28;20181;-76
2020/12/17 00:49:38;;;;;;;21.70;15.57;;;;;;;;;;4956073;28;20209;-75
2020/12/17 00:52:04;;;;;;;23.70;16.53;;;;;;;;;;4956478;28;20186;-76
2020/12/17 00:54:30;;;;;;;23.13;16.40;;;;;;;;;;4956000;28;20221;-76
2020/12/17 00:56:56;;;;;;;28.10;17.63;;;;;;;;;;4954706;28;20561;-76
2020/12/17 00:59:22;;;;;;;26.53;17.90;;;;;;;;;;4938886;29;20209;-76
2020/12/17 01:01:49;;;;;;;23.50;16.60;;;;;;;;;;4955829;28;20260;-76
2020/12/17 01:04:15;;;;;;;22.47;16.33;;;;;;;;;;4955781;28;20244;-77
2020/12/17 01:06:41;;;;;;;26.20;16.97;;;;;;;;;;4956135;28;20184;-77
2020/12/17 01:09:08;;;;;;;27.20;16.17;;;;;;;;;;4955907;28;20538;-77
2020/12/17 01:11:34;;;;;;;26.23;16.87;;;;;;;;;;4956093;28;20272;-77
2020/12/17 01:14:01;;;;;;;25.90;16.87;;;;;;;;;;4956748;28;20240;-76
2020/12/17 01:16:27;;;;;;;24.97;16.13;;;;;;;;;;4956384;28;20201;-77
2020/12/17 01:18:54;;;;;;;26.67;17.50;;;;;;;;;;4950498;28;20232;-75
2020/12/17 01:21:20;;;;;;;29.93;17.83;;;;;;;;;;4952381;28;20211;-77
2020/12/17 01:23:46;;;;;;;29.27;18.37;;;;;;;;;;4955299;28;20232;-77
2020/12/17 01:26:12;;;;;;;30.57;19.53;;;;;;;;;;4955450;28;20710;-76
2020/12/17 01:28:39;;;;;;;28.57;17.03;;;;;;;;;;4955513;28;20205;-76
2020/12/17 01:31:09;;;;;;;29.90;18.57;;;;;;;;;;4954260;28;20192;-77
2020/12/17 01:33:36;;;;;;;30.30;18.17;;;;;;;;;;4955241;28;20190;-75
2020/12/17 01:36:04;;;;;;;31.20;19.03;;;;;;;;;;4954238;28;20189;-75
2020/12/17 01:38:30;;;;;;;32.30;19.63;;;;;;;;;;4955456;28;20208;-76
2020/12/17 01:40:56;;;;;;;30.67;18.10;;;;;;;;;;4953998;28;20295;-76
2020/12/17 01:43:22;;;;;;;29.57;18.57;;;;;;;;;;4955386;28;20268;-75
2020/12/17 01:45:48;;;;;;;31.37;18.60;;;;;;;;;;4955512;28;20550;-76
2020/12/17 01:48:18;;;;;;;36.63;19.40;;;;;;;;;;4955395;28;20191;-75
2020/12/17 01:50:45;;;;;;;27.90;17.97;;;;;;;;;;4955145;28;20194;-74
2020/12/17 01:53:12;;;;;;;29.60;18.80;;;;;;;;;;4955599;28;20185;-75
2020/12/17 01:55:38;;;;;;;30.90;18.77;;;;;;;;;;4953880;28;20193;-76
2020/12/17 01:58:06;;;;;;;28.97;18.03;;;;;;;;;;4955115;28;20640;-74
2020/12/17 02:00:36;;;;;;;24.73;16.67;;;;;;;;;;4955170;28;20209;-75
2020/12/17 02:03:03;;;;;;;24.90;16.03;;;;;;;;;;4950907;28;20641;-75
2020/12/17 02:05:29;;;;;;;20.83;15.23;;;;;;;;;;4955059;28;20660;-76
2020/12/17 02:08:00;;;;;;;23.73;15.67;;;;;;;;;;4955149;28;20204;-75
2020/12/17 02:10:27;;;;;;;24.93;16.80;;;;;;;;;;4965552;28;20205;-76
2020/12/17 02:12:53;;;;;;;27.30;16.73;;;;;;;;;;4958024;28;20181;-76
2020/12/17 02:15:20;;;;;;;31.20;17.80;;;;;;;;;;4955087;28;20549;-75
2020/12/17 02:17:47;;;;;;;25.50;16.07;;;;;;;;;;4954964;28;20181;-75
2020/12/17 02:20:13;;;;;;;24.33;16.33;;;;;;;;;;4950871;28;20213;-75
2020/12/17 02:22:40;;;;;;;22.47;15.37;;;;;;;;;;4954972;28;20185;-75
2020/12/17 02:25:07;;;;;;;21.50;14.97;;;;;;;;;;4954912;28;20268;-76
2020/12/17 02:27:33;;;;;;;27.47;15.47;;;;;;;;;;4955243;28;20232;-76
2020/12/17 02:29:59;;;;;;;23.50;15.77;;;;;;;;;;4954766;28;20205;-76
2020/12/17 02:32:25;;;;;;;27.17;16.60;;;;;;;;;;4955452;28;20181;-76
2020/12/17 02:34:51;;;;;;;24.10;16.23;;;;;;;;;;4955161;28;20189;-76
2020/12/17 02:37:17;;;;;;;27.30;16.57;;;;;;;;;;4962025;28;20195;-76
2020/12/17 02:39:43;;;;;;;26.97;16.27;;;;;;;;;;4967785;28;20216;-76
2020/12/17 02:42:09;;;;;;;30.50;17.03;;;;;;;;;;4958397;28;20220;-77
2020/12/17 02:44:36;;;;;;;32.30;18.60;;;;;;;;;;4958734;28;20212;-74
2020/12/17 02:47:02;;;;;;;28.30;17.03;;;;;;;;;;4951581;28;20186;-76
2020/12/17 02:49:28;;;;;;;30.97;17.83;;;;;;;;;;4954587;28;20197;-76
2020/12/17 02:51:54;;;;;;;29.40;17.53;;;;;;;;;;4955222;28;20189;-76
2020/12/17 02:54:20;;;;;;;26.77;16.37;;;;;;;;;;4957352;28;20200;-75
2020/12/17 02:56:46;;;;;;;28.23;17.80;;;;;;;;;;4958428;28;20571;-75
2020/12/17 02:59:14;;;;;;;30.73;18.33;;;;;;;;;;4957898;28;20680;-75
2020/12/17 03:01:40;;;;;;;30.23;17.63;;;;;;;;;;4958186;28;20211;-75
2020/12/17 03:04:07;;;;;;;26.43;16.87;;;;;;;;;;4957427;28;20644;-75
2020/12/17 03:06:33;;;;;;;26.03;17.13;;;;;;;;;;4957947;28;20232;-75
2020/12/17 03:08:59;;;;;;;26.77;16.37;;;;;;;;;;4958213;28;20232;-75
2020/12/17 03:11:25;;;;;;;24.23;15.67;;;;;;;;;;4958122;28;20336;-75
2020/12/17 03:13:51;;;;;;;25.53;16.27;;;;;;;;;;4957867;28;20582;-75
2020/12/17 03:16:18;;;;;;;26.43;17.27;;;;;;;;;;4957996;28;20181;-75
2020/12/17 03:18:44;;;;;;;26.27;16.93;;;;;;;;;;4953563;28;20225;-75
2020/12/17 03:21:11;;;;;;;27.07;17.37;;;;;;;;;;4958046;23;20256;-79
2020/12/17 03:23:37;;;;;;;25.70;16.17;;;;;;;;;;4941620;29;20169;-79
2020/12/17 03:26:03;;;;;;;27.97;17.47;;;;;;;;;;4949301;29;20202;-78
2020/12/17 03:28:29;;;;;;;29.77;17.93;;;;;;;;;;4947028;29;20184;-78
2020/12/17 03:30:55;;;;;;;30.47;17.90;;;;;;;;;;4960850;28;20207;-78
2020/12/17 03:33:21;;;;;;;30.87;17.43;;;;;;;;;;4961109;28;20185;-79
2020/12/17 03:35:47;;;;;;;29.97;17.00;;;;;;;;;;4960470;28;20257;-78
2020/12/17 03:38:14;;;;;;;30.30;17.77;;;;;;;;;;4955910;28;20299;-78
2020/12/17 03:40:40;;;;;;;31.43;18.33;;;;;;;;;;4943753;29;20228;-78
2020/12/17 03:43:06;;;;;;;33.03;19.10;;;;;;;;;;4961123;28;20205;-78
2020/12/17 03:45:32;;;;;;;30.80;17.70;;;;;;;;;;4960811;28;20236;-78
2020/12/17 03:47:58;;;;;;;31.37;18.23;;;;;;;;;;4960073;28;20707;-78
2020/12/17 03:50:25;;;;;;;29.40;17.07;;;;;;;;;;4960909;28;20201;-77
2020/12/17 03:52:51;;;;;;;29.63;17.40;;;;;;;;;;4959564;28;20205;-78
2020/12/17 03:55:17;;;;;;;33.97;17.80;;;;;;;;;;4960423;28;20554;-79
2020/12/17 03:57:44;;;;;;;29.47;17.03;;;;;;;;;;4960744;28;20593;-78
2020/12/17 04:00:10;;;;;;;29.30;17.10;;;;;;;;;;4956977;28;20784;-79
2020/12/17 04:02:36;;;;;;;27.97;16.37;;;;;;;;;;4956827;29;20216;-80
2020/12/17 04:05:02;;;;;;;30.53;16.87;;;;;;;;;;4959136;28;20177;-79
2020/12/17 04:07:28;;;;;;;32.93;18.23;;;;;;;;;;4960947;28;20205;-79
2020/12/17 04:09:54;;;;;;;33.10;18.17;;;;;;;;;;4960948;28;20724;-78
2020/12/17 04:12:20;;;;;;;29.83;17.13;;;;;;;;;;4961239;28;20239;-78
2020/12/17 04:14:47;;;;;;;26.87;16.77;;;;;;;;;;4960327;28;20184;-77
2020/12/17 04:17:13;;;;;;;30.20;16.40;;;;;;;;;;4955334;28;20610;-78
2020/12/17 04:19:39;;;;;;;33.53;17.50;;;;;;;;;;4960488;28;20250;-78
2020/12/17 04:22:05;;;;;;;31.23;17.13;;;;;;;;;;4960336;28;20545;-78
2020/12/17 04:24:31;;;;;;;33.77;18.13;;;;;;;;;;4958956;28;20541;-78
2020/12/17 04:26:57;;;;;;;29.83;16.63;;;;;;;;;;4960420;28;20178;-77
2020/12/17 04:29:23;;;;;;;29.53;18.03;;;;;;;;;;4959281;28;20266;-78
2020/12/17 04:31:50;;;;;;;36.03;18.03;;;;;;;;;;4960829;28;20236;-78
2020/12/17 04:34:16;;;;;;;30.57;16.57;;;;;;;;;;4960994;28;20187;-79
2020/12/17 04:36:42;;;;;;;32.63;16.90;;;;;;;;;;4959869;28;20655;-78
2020/12/17 04:39:08;;;;;;;30.97;17.17;;;;;;;;;;4960766;28;20186;-77
2020/12/17 04:41:37;;;;;;;29.37;16.07;;;;;;;;;;4961207;28;20677;-78
2020/12/17 04:44:04;;;;;;;29.73;17.10;;;;;;;;;;4961084;28;20173;-78
2020/12/17 04:46:31;;;;;;;34.03;18.10;;;;;;;;;;4960289;28;20265;-78
2020/12/17 04:48:59;;;;;;;36.30;18.63;;;;;;;;;;4961262;28;20706;-80
2020/12/17 04:51:25;;;;;;;33.67;19.30;;;;;;;;;;4961210;28;20323;-80
2020/12/17 04:53:51;;;;;;;36.30;19.17;;;;;;;;;;4961526;28;20193;-81
2020/12/17 04:56:18;;;;;;;35.40;19.43;;;;;;;;;;4960779;28;20296;-80
2020/12/17 04:58:49;;;;;;;35.17;18.90;;;;;;;;;;4959325;28;20182;-80
2020/12/17 05:01:17;;;;;;;37.07;19.40;;;;;;;;;;4948808;28;20245;-80
2020/12/17 05:03:46;;;;;;;37.23;19.60;;;;;;;;;;4951123;29;20178;-79
2020/12/17 05:06:18;;;;;;;42.00;20.57;;;4.50;99.90;;;;;;4934873;28;20178;-80
2020/12/17 05:08:44;;;;;;;33.03;19.10;;;4.80;99.90;;;;;;4944978;29;20185;-79
2020/12/17 05:11:10;;;;;;;34.77;18.73;;;4.80;99.90;;;;;;4955700;28;20193;-79
2020/12/17 05:13:36;;;;;;;35.17;18.63;;;4.90;99.90;;;;;;4959503;28;20206;-79
2020/12/17 05:16:02;;;;;;;38.10;19.83;;;4.90;99.90;;;;;;4958154;29;20205;-79
2020/12/17 05:18:28;;;;;;;38.57;20.93;;;4.80;99.90;;;;;;4960054;28;20174;-79
2020/12/17 05:20:54;;;;;;;34.73;19.07;;;4.80;99.90;;;;;;4959394;28;20239;-79
2020/12/17 05:23:23;;;;;;;35.03;19.47;;;4.90;99.90;;;;;;4942458;29;20182;-79
2020/12/17 05:25:52;;;;;;;40.20;21.27;;;4.90;99.90;;;;;;4948585;28;20629;-80
2020/12/17 05:28:18;;;;;;;40.80;21.33;;;4.90;99.90;;;;;;4944326;29;20177;-79
2020/12/17 05:30:44;;;;;;;37.10;20.23;;;4.80;99.90;;;;;;4960059;28;20207;-80
2020/12/17 05:33:10;;;;;;;37.07;19.40;;;4.80;99.90;;;;;;4959027;28;20267;-79
2020/12/17 05:35:37;;;;;;;39.67;20.70;;;4.80;99.90;;;;;;4958014;29;20650;-79
2020/12/17 05:38:07;;;;;;;38.70;20.10;;;4.90;99.90;;;;;;4959222;28;20232;-77
2020/12/17 05:40:40;;;;;;;35.67;20.60;;;4.80;99.90;;;;;;4958736;28;20256;-78
2020/12/17 05:43:06;;;;;;;46.27;21.43;;;4.80;99.90;;;;;;4958963;28;20179;-79
2020/12/17 05:45:33;;;;;;;43.33;19.83;;;4.80;99.90;;;;;;4955020;29;20236;-79
2020/12/17 05:48:13;;;;;;;41.80;21.03;;;4.80;99.90;;;;;;4942483;29;20236;-80
2020/12/17 05:50:58;;;;;;;39.10;20.53;;;4.90;99.90;;;;;;4954669;28;20234;-79
2020/12/17 05:53:28;;;;;;;42.23;21.17;;;4.90;99.90;;;;;;4959008;28;20181;-78
2020/12/17 05:56:03;;;;;;;42.50;20.87;;;4.90;99.90;;;;;;4957607;28;20228;-78
2020/12/17 05:58:42;;;;;;;37.33;20.60;;;4.90;99.90;;;;;;4952058;29;20185;-79
2020/12/17 06:01:15;;;;;;;40.77;20.70;;;4.90;99.90;;;;;;4958143;28;20224;-79
2020/12/17 06:03:41;;;;;;;40.23;20.97;;;4.90;99.90;;;;;;4963041;28;20710;-79
2020/12/17 06:06:08;;;;;;;36.17;20.20;;;4.90;99.90;;;;;;4965607;28;20182;-78
2020/12/17 06:08:39;;;;;;;40.17;20.13;;;5.00;99.90;;;;;;4961599;28;20605;-79
2020/12/17 06:11:10;;;;;;;39.03;20.10;;;5.00;99.90;;;;;;4962858;28;20220;-80
2020/12/17 06:13:38;;;;;;;37.37;19.90;;;5.00;99.90;;;;;;4963352;29;20176;-79
2020/12/17 06:16:06;;;;;;;37.43;20.00;;;5.00;99.90;;;;;;4957596;28;20179;-80
2020/12/17 06:18:51;;;;;;;40.37;21.30;;;5.00;99.90;;;;;;4943761;29;20193;-79
2020/12/17 06:21:18;;;;;;;37.83;20.90;;;5.00;99.90;;;;;;4958732;29;20268;-80
2020/12/17 06:23:44;;;;;;;42.97;21.53;;;5.00;99.90;;;;;;4962480;29;20197;-80
2020/12/17 06:26:11;;;;;;;41.17;21.53;;;5.00;99.90;;;;;;4961073;29;20661;-80
2020/12/17 06:28:48;;;;;;;41.27;21.57;;;5.00;99.90;;;;;;4961634;28;20264;-79
2020/12/17 06:31:16;;;;;;;41.03;21.70;;;5.00;99.90;;;;;;4962379;28;20281;-80
2020/12/17 06:33:43;;;;;;;38.87;21.47;;;5.00;99.90;;;;;;4961873;29;20177;-79
2020/12/17 06:36:38;;;;;;;42.60;22.47;;;5.00;99.90;;;;;;4961624;29;20185;-77
2020/12/17 06:39:07;;;;;;;46.10;22.43;;;5.00;99.90;;;;;;4976608;28;20186;-78
2020/12/17 06:41:34;;;;;;;46.80;23.50;;;5.00;99.90;;;;;;4960722;28;20216;-77
2020/12/17 06:44:00;;;;;;;53.00;22.63;;;5.00;99.90;;;;;;4961385;29;20170;-80
2020/12/17 06:46:39;;;;;;;49.03;23.13;;;5.00;99.90;;;;;;4962123;28;20164;-79
2020/12/17 06:49:07;;;;;;;48.77;22.80;;;5.00;99.90;;;;;;4960846;29;20170;-79
2020/12/17 06:51:34;;;;;;;43.97;21.97;;;5.00;99.90;;;;;;4961823;28;20206;-80
2020/12/17 06:54:02;;;;;;;46.70;22.33;;;5.00;99.90;;;;;;4960903;28;20214;-79
2020/12/17 06:56:28;;;;;;;45.13;23.47;;;5.00;99.90;;;;;;4961771;29;20174;-79
2020/12/17 06:59:20;;;;;;;44.97;22.63;;;5.00;99.90;;;;;;4954133;29;20260;-79
2020/12/17 07:01:47;;;;;;;43.97;21.07;;;5.00;99.90;;;;;;4932401;29;20297;-79
2020/12/17 07:04:34;;;;;;;50.20;22.53;;;5.00;99.90;;;;;;4957107;29;20220;-77
2020/12/17 07:07:19;;;;;;;45.27;21.70;;;5.00;99.90;;;;;;4961583;28;20662;-79
2020/12/17 07:09:47;;;;;;;49.23;22.47;;;5.00;99.90;;;;;;4941142;29;20744;-79
2020/12/17 07:12:35;;;;;;;48.10;22.90;;;5.00;99.90;;;;;;4941611;29;20178;-80
2020/12/17 07:15:35;;;;;;;43.07;20.63;;;5.00;99.90;;;;;;4930264;29;20184;-79
2020/12/17 07:18:27;;;;;;;44.17;21.80;;;5.00;99.90;;;;;;4944799;29;20253;-79
2020/12/17 07:21:03;;;;;;;35.73;19.37;;;5.10;99.90;;;;;;4959877;28;20257;-79
2020/12/17 07:23:39;;;;;;;42.27;21.73;;;5.10;99.90;;;;;;4934934;29;20170;-78
2020/12/17 07:26:12;;;;;;;44.37;22.27;;;5.10;99.90;;;;;;4960765;29;20180;-78
2020/12/17 07:28:38;;;;;;;43.77;23.90;;;5.10;99.90;;;;;;4954812;28;20186;-78
2020/12/17 07:31:05;;;;;;;43.40;23.37;;;5.10;99.90;;;;;;4943853;28;20204;-79
2020/12/17 07:33:37;;;;;;;38.53;22.20;;;5.10;99.90;;;;;;4943083;29;20197;-79
2020/12/17 07:36:03;;;;;;;43.43;22.70;;;5.10;99.90;;;;;;4941198;29;20183;-79
2020/12/17 07:38:29;;;;;;;41.47;21.23;;;;;;;;;;4941883;29;20189;-79
2020/12/17 07:40:56;;;;;;;43.03;20.80;;;5.10;99.90;;;;;;4928864;28;20756;-78
2020/12/17 07:43:24;;;;;;;42.13;22.57;;;5.10;99.90;;;;;;4940182;29;20208;-79
2020/12/17 07:45:51;;;;;;;47.77;23.87;;;5.20;99.90;;;;;;4942208;29;20230;-78
2020/12/17 07:48:43;;;;;;;39.23;21.77;;;5.20;99.90;;;;;;4941507;29;20256;-79
2020/12/17 07:51:28;;;;;;;40.40;22.07;;;5.10;99.90;;;;;;4928714;29;20205;-79
2020/12/17 07:53:55;;;;;;;45.13;23.17;;;5.10;99.90;;;;;;4956749;29;20168;-78
2020/12/17 07:56:21;;;;;;;38.97;21.47;;;5.10;99.90;;;;;;4963496;28;20609;-79
2020/12/17 07:58:48;;;;;;;37.03;19.40;;;5.20;99.90;;;;;;4956346;28;20181;-79
2020/12/17 08:01:15;;;;;;;35.43;20.37;;;5.30;99.90;;;;;;4941501;29;20208;-79
2020/12/17 08:03:48;;;;;;;31.77;20.43;;;5.20;99.90;;;;;;4953062;29;20201;-78
2020/12/17 08:06:19;;;;;;;38.80;20.70;;;5.20;99.90;;;;;;4955880;29;20487;-80
2020/12/17 08:08:46;;;;;;;34.70;20.77;;;5.20;99.90;;;;;;4940016;29;20175;-79
2020/12/17 08:11:12;;;;;;;32.00;18.93;;;5.20;99.90;;;;;;4954297;28;20591;-80
2020/12/17 08:13:38;;;;;;;33.47;19.07;;;5.20;99.90;;;;;;4938127;29;20183;-78
2020/12/17 08:16:05;;;;;;;33.47;19.87;;;5.30;99.90;;;;;;4941511;29;20652;-79
2020/12/17 08:18:35;;;;;;;33.10;19.23;;;;;;;;;;4947488;29;20523;-80
2020/12/17 08:21:12;;;;;;;31.23;18.37;;;;;;;;;;4945372;28;20296;-81
2020/12/17 08:23:44;;;;;;;29.67;18.17;;;5.30;99.90;;;;;;4941178;29;20640;-79
2020/12/17 08:26:12;;;;;;;29.03;17.90;;;5.30;99.90;;;;;;4941385;29;20178;-78
2020/12/17 08:28:41;;;;;;;25.13;16.73;;;5.30;99.90;;;;;;4953963;28;20269;-79
2020/12/17 08:31:25;;;;;;;26.13;17.97;;;5.30;99.90;;;;;;4939010;29;20254;-78
2020/12/17 08:33:59;;;;;;;27.57;17.00;;;5.30;99.90;;;;;;4939342;29;20178;-78
2020/12/17 08:36:32;;;;;;;26.97;16.77;;;5.30;99.90;;;;;;4941269;29;20176;-78
2020/12/17 08:39:07;;;;;;;23.13;15.33;;;5.20;99.90;;;;;;4954648;29;20529;-79
2020/12/17 08:41:41;;;;;;;22.40;15.27;;;5.30;99.90;;;;;;4937047;29;20684;-78
2020/12/17 08:44:08;;;;;;;26.57;15.43;;;5.30;99.90;;;;;;4942368;29;20563;-79
2020/12/17 08:46:44;;;;;;;23.93;15.80;;;5.40;99.90;;;;;;4955543;28;20186;-78
2020/12/17 08:49:12;;;;;;;28.87;16.30;;;5.30;99.90;;;;;;4957389;28;20169;-80
2020/12/17 08:51:43;;;;;;;29.80;16.27;;;5.30;99.90;;;;;;4959439;29;20173;-78
2020/12/17 08:54:09;;;;;;;26.03;16.33;;;5.20;99.90;;;;;;4942968;29;20209;-77
2020/12/17 08:56:35;;;;;;;24.20;15.83;;;5.30;99.90;;;;;;4940394;29;20213;-78
2020/12/17 08:59:04;;;;;;;27.80;17.27;;;5.30;99.90;;;;;;4938556;29;20179;-79
2020/12/17 09:01:35;;;;;;;29.87;18.37;;;5.30;99.90;;;;;;4938604;29;20203;-79
2020/12/17 09:04:10;;;;;;;26.07;17.93;;;5.30;99.90;;;;;;4952543;29;20264;-79
2020/12/17 09:06:39;;;;;;;27.93;17.73;;;5.40;99.90;;;;;;4958853;29;20173;-78
2020/12/17 09:09:16;;;;;;;27.30;17.50;;;5.40;99.90;;;;;;4959042;28;20232;-78
2020/12/17 09:11:46;;;;;;;32.97;19.23;;;5.40;99.90;;;;;;4928107;29;20183;-79
2020/12/17 09:14:19;;;;;;;26.17;17.47;;;5.30;99.90;;;;;;4940683;29;20264;-78
2020/12/17 09:16:46;;;;;;;29.80;18.87;;;5.40;99.90;;;;;;4927828;29;20207;-78
2020/12/17 09:19:12;;;;;;;29.90;18.47;;;5.50;99.90;;;;;;4939874;29;20716;-79
2020/12/17 09:21:53;;;;;;;29.17;18.10;;;5.50;99.90;;;;;;4960259;23;20251;-78
2020/12/17 09:24:29;;;;;;;27.30;18.03;;;5.50;99.90;;;;;;4957469;28;20188;-78
2020/12/17 09:27:13;;;;;;;29.83;17.83;;;5.40;99.90;;;;;;4962320;28;20647;-78
2020/12/17 09:29:39;;;;;;;30.13;18.73;;;;;;;;;;4958514;28;20182;-78
2020/12/17 09:32:20;;;;;;;25.57;17.73;;;5.40;99.90;;;;;;4951243;28;20234;-78
2020/12/17 09:34:47;;;;;;;27.70;18.47;;;5.50;99.90;;;;;;4948965;28;20598;-78
2020/12/17 09:37:12;;;;;;;28.77;17.73;;;5.50;99.90;;;;;;4958255;28;20166;-78
2020/12/17 09:39:46;;;;;;;25.70;16.93;;;5.50;99.90;;;;;;4957908;28;20553;-78
2020/12/17 09:42:16;;;;;;;30.57;19.17;;;5.50;99.90;;;;;;4958458;28;20204;-79
2020/12/17 09:44:44;;;;;;;30.73;18.10;;;5.50;99.90;;;;;;4958645;28;20238;-78
2020/12/17 09:47:10;;;;;;;26.27;17.13;;;5.50;99.90;;;;;;4958263;28;20182;-77
2020/12/17 09:49:38;;;;;;;26.30;16.77;;;5.50;99.90;;;;;;4957861;28;20173;-79
2020/12/17 09:52:12;;;;;;;26.17;16.80;;;5.50;99.90;;;;;;4958457;28;20221;-78
2020/12/17 09:54:41;;;;;;;26.83;17.03;;;5.50;99.90;;;;;;4958568;28;20272;-77
2020/12/17 09:57:10;;;;;;;27.40;17.60;;;;;;;;;;4957145;28;20188;-78
2020/12/17 09:59:37;;;;;;;30.00;19.10;;;;;;;;;;4957387;28;20173;-78
2020/12/17 10:02:03;;;;;;;30.70;18.17;;;;;;;;;;4956398;28;20258;-78
2020/12/17 10:04:30;;;;;;;34.30;22.30;;;;;;;;;;4943686;28;20180;-78
2020/12/17 10:06:57;;;;;;;27.77;17.10;;;;;;;;;;4959264;28;20187;-78
2020/12/17 10:09:23;;;;;;;31.47;18.17;;;;;;;;;;4958652;28;20178;-79
2020/12/17 10:11:50;;;;;;;29.90;17.43;;;;;;;;;;4956725;28;20224;-78
2020/12/17 10:14:16;;;;;;;28.97;17.80;;;;;;;;;;4957192;28;20598;-79
2020/12/17 10:16:43;;;;;;;27.87;16.93;;;;;;;;;;4957810;28;20177;-79
2020/12/17 10:19:09;;;;;;;27.87;17.80;;;;;;;;;;4956160;28;20182;-79
2020/12/17 10:21:36;;;;;;;29.77;17.50;;;;;;;;;;4956813;28;20220;-78
2020/12/17 10:24:06;;;;;;;29.53;17.80;;;;;;;;;;4955770;28;20205;-78
2020/12/17 10:26:33;;;;;;;29.70;17.77;;;;;;;;;;4970056;28;20168;-79
2020/12/17 10:28:59;;;;;;;30.70;18.20;;;;;;;;;;4956312;28;20182;-78
2020/12/17 10:31:26;;;;;;;31.03;18.13;;;;;;;;;;4953930;28;20205;-78
2020/12/17 10:33:54;;;;;;;32.93;18.40;;;;;;;;;;4957371;28;20521;-78
2020/12/17 10:36:20;;;;;;;30.00;18.40;;;;;;;;;;4956153;28;20193;-79
2020/12/17 10:38:46;;;;;;;32.53;18.43;;;;;;;;;;4956273;28;20233;-78
2020/12/17 10:41:12;;;;;;;27.87;17.47;;;;;;;;;;4955949;28;20205;-78
2020/12/17 10:43:39;;;;;;;30.57;18.37;;;;;;;;;;4957257;28;20204;-78
2020/12/17 10:46:05;;;;;;;30.60;18.27;;;;;;;;;;4962708;28;20165;-79
2020/12/17 10:48:31;;;;;;;31.53;18.10;;;;;;;;;;4964589;28;20592;-78
2020/12/17 10:50:57;;;;;;;30.63;17.40;;;;;;;;;;4960617;28;20212;-78
2020/12/17 10:53:24;;;;;;;26.93;17.17;;;;;;;;;;4946878;28;20272;-80
2020/12/17 10:55:51;;;;;;;32.90;19.20;;;;;;;;;;4957439;28;20174;-78
2020/12/17 10:58:18;;;;;;;27.17;17.17;;;;;;;;;;4959890;28;20188;-77
2020/12/17 11:00:44;;;;;;;28.00;17.37;;;;;;;;;;4959377;28;20338;-78
2020/12/17 11:03:10;;;;;;;31.67;18.83;;;;;;;;;;4960705;28;20173;-78
2020/12/17 11:05:37;;;;;;;33.40;18.80;;;;;;;;;;4959276;28;20246;-79
2020/12/17 11:08:03;;;;;;;47.17;24.50;;;;;;;;;;4960237;28;20198;-79
2020/12/17 11:10:30;;;;;;;41.83;23.73;;;;;;;;;;4971172;28;20184;-78
2020/12/17 11:12:56;;;;;;;34.67;19.77;;;;;;;;;;4961729;28;20202;-78
2020/12/17 11:15:22;;;;;;;34.47;19.23;;;;;;;;;;4960487;28;20186;-77
2020/12/17 11:17:49;;;;;;;36.07;20.37;;;;;;;;;;4962601;28;20263;-79
2020/12/17 11:20:17;;;;;;;32.90;18.83;;;;;;;;;;4971043;28;20577;-79
2020/12/17 11:22:46;;;;;;;32.97;19.63;;;;;;;;;;4960103;28;20236;-77
2020/12/17 11:25:12;;;;;;;32.37;19.63;;;;;;;;;;4970711;28;20228;-78
2020/12/17 11:27:39;;;;;;;36.47;20.47;;;;;;;;;;4956992;28;20175;-77
2020/12/17 11:30:06;;;;;;;36.97;20.90;;;;;;;;;;4955824;28;20265;-77
2020/12/17 11:32:32;;;;;;;35.47;20.70;;;;;;;;;;4955766;28;20206;-77
2020/12/17 11:34:58;;;;;;;34.80;20.43;;;;;;;;;;4958626;28;20192;-77
2020/12/17 11:37:25;;;;;;;35.43;20.00;;;;;;;;;;4958931;28;20550;-76
2020/12/17 11:39:51;;;;;;;32.80;19.53;;;;;;;;;;4957318;28;20189;-77
2020/12/17 11:42:17;;;;;;;35.90;20.07;;;;;;;;;;4961747;28;20194;-77
2020/12/17 11:44:43;;;;;;;35.87;20.13;;;;;;;;;;4968669;28;20233;-77
2020/12/17 11:47:10;;;;;;;37.73;20.17;;;;;;;;;;4958625;28;20190;-77
2020/12/17 11:49:36;;;;;;;32.40;19.93;;;;;;;;;;4958541;28;20267;-79
2020/12/17 11:52:02;;;;;;;38.07;20.10;;;;;;;;;;4957303;28;20206;-77
2020/12/17 11:54:29;;;;;;;30.83;18.97;;;;;;;;;;4957268;28;20177;-78
2020/12/17 11:57:04;;;;;;;35.50;20.40;;;;;;;;;;4958684;28;20186;-78
2020/12/17 11:59:33;;;;;;;43.60;21.73;;;;;;;;;;4958457;28;20254;-78
2020/12/17 12:01:59;;;;;;;32.60;19.60;;;;;;;;;;4958594;28;20253;-79
2020/12/17 12:04:25;;;;;;;33.63;20.57;;;;;;;;;;4949870;28;20261;-79
2020/12/17 12:06:51;;;;;;;30.77;20.10;;;;;;;;;;4958498;28;20264;-78
2020/12/17 12:09:20;;;;;;;32.87;20.40;;;;;;;;;;4939324;28;20209;-79
2020/12/17 12:11:47;;;;;;;32.07;19.10;;;;;;;;;;4964574;28;20213;-77
2020/12/17 12:14:13;;;;;;;31.13;19.97;;;;;;;;;;4955159;28;20178;-78
2020/12/17 12:16:41;;;;;;;32.60;19.40;;;;;;;;;;4958481;28;20188;-77
2020/12/17 12:19:07;;;;;;;35.33;20.30;;;;;;;;;;4958836;28;20595;-78
2020/12/17 12:21:33;;;;;;;33.47;20.87;;;;;;;;;;4957281;28;20221;-78
2020/12/17 12:23:59;;;;;;;34.67;20.67;;;;;;;;;;4958665;28;20623;-78
2020/12/17 12:26:26;;;;;;;34.23;19.93;;;;;;;;;;4958651;28;20246;-78
2020/12/17 12:28:52;;;;;;;38.80;21.20;;;;;;;;;;4957735;28;20603;-77
2020/12/17 12:31:18;;;;;;;39.70;23.07;;;;;;;;;;4956126;28;20213;-77
2020/12/17 12:33:44;;;;;;;42.20;23.17;;;;;;;;;;4957733;28;20198;-78
2020/12/17 12:36:12;;;;;;;34.93;21.00;;;;;;;;;;4957506;28;20247;-78
2020/12/17 12:38:38;;;;;;;36.47;21.67;;;;;;;;;;4957638;28;20182;-78
2020/12/17 12:41:04;;;;;;;33.90;21.33;;;;;;;;;;4944259;28;20240;-78
2020/12/17 12:43:30;;;;;;;38.23;21.70;;;;;;;;;;4955505;28;20185;-78
2020/12/17 12:45:57;;;;;;;44.27;23.67;;;;;;;;;;4954495;28;20185;-79
2020/12/17 12:48:23;;;;;;;38.60;22.53;;;;;;;;;;4955713;28;20222;-77
2020/12/17 12:50:50;;;;;;;40.97;23.50;;;;;;;;;;4954453;28;20182;-78
2020/12/17 12:53:17;;;;;;;38.40;22.77;;;;;;;;;;4956925;28;20251;-79
2020/12/17 12:55:46;;;;;;;39.20;21.93;;;;;;;;;;4956478;28;20654;-78
2020/12/17 12:58:12;;;;;;;43.03;23.23;;;;;;;;;;4957932;28;20633;-78
2020/12/17 13:00:38;;;;;;;44.33;24.17;;;;;;;;;;4955976;28;20211;-77
2020/12/17 13:03:05;;;;;;;49.50;30.03;;;;;;;;;;4955979;28;20649;-78
2020/12/17 13:05:33;;;;;;;49.07;27.60;;;;;;;;;;4957469;28;20195;-78
2020/12/17 13:07:59;;;;;;;44.37;25.90;;;;;;;;;;4956315;28;20189;-78
2020/12/17 13:10:25;;;;;;;40.90;23.80;;;;;;;;;;4955910;28;20658;-78
2020/12/17 13:12:51;;;;;;;35.83;22.53;;;;;;;;;;4956481;28;20665;-78
2020/12/17 13:15:18;;;;;;;40.80;24.33;;;;;;;;;;4956217;28;20199;-78
2020/12/17 13:17:44;;;;;;;38.77;22.73;;;;;;;;;;4955248;28;20224;-79
2020/12/17 13:20:10;;;;;;;41.87;24.77;;;;;;;;;;4955242;28;20607;-77
2020/12/17 13:22:36;;;;;;;41.33;23.43;;;;;;;;;;4956856;28;20214;-77
2020/12/17 13:25:03;;;;;;;36.57;22.53;;;;;;;;;;4955489;28;20181;-78
2020/12/17 13:27:29;;;;;;;37.57;22.47;;;;;;;;;;4955548;28;20186;-79
2020/12/17 13:29:55;;;;;;;35.97;22.77;;;;;;;;;;4956470;28;20211;-78
2020/12/17 13:32:22;;;;;;;37.40;22.40;;;;;;;;;;4949862;28;20542;-78
2020/12/17 13:34:48;;;;;;;41.50;23.67;;;;;;;;;;4932209;29;20186;-79
2020/12/17 13:37:16;;;;;;;38.30;22.17;;;;;;;;;;4952563;28;20210;-78
2020/12/17 13:39:42;;;;;;;37.70;22.60;;;;;;;;;;4946288;28;20289;-78
2020/12/17 13:42:08;;;;;;;38.23;22.70;;;;;;;;;;4955450;28;20267;-78
2020/12/17 13:44:34;;;;;;;39.27;23.33;;;;;;;;;;4957088;28;20190;-78
2020/12/17 13:47:00;;;;;;;37.20;22.90;;;;;;;;;;4956185;28;20181;-79